Naples, Italy

7:23 AM CEST on July 29, 2016 (GMT +0200)
Napoli | | Change Station

Elev 564 ft 40.85 °N, 14.23 °E | Updated 2 minutes ago

Clear
Clear
73.0 °F
Feels Like 71 °F
N
0.0
Wind Variable Wind from SE
Gusts 3.0 mph

Today
High -- | Low -- °F
--% Chance of Precip.
Yesterday
High -- | Low -- °F
Precip. -- in
Pressure 29.98 in
Visibility -9999.0 miles
Clouds
Heat Index 71 °F
Dew Point 69 °F
Humidity 88%
Rainfall in
Snow Depth Not available.
5:56 AM 8:21 PM
Waning Crescent, 25% visible
METAR LIRM 290455Z 01003KT CAVOK 20/17 Q1015 RMK SKC VIS MIN 9999 WIND THR06 35005KT BLU
Pressure 29.98 in
Visibility -9999.0 miles
Clouds
Heat Index 71 °F
Dew Point 69 °F
Humidity 88%
Rainfall in
Snow Depth Not available.
5:56 AM 8:21 PM
Waning Crescent, 25% visible
METAR LIRM 290455Z 01003KT CAVOK 20/17 Q1015 RMK SKC VIS MIN 9999 WIND THR06 35005KT BLU

10-Day Weather Forecast

×

Almanac

Astronomy

Jul. 29, 2016 Rise Set
Actual Time
Civil Twilight
Nautical Twilight
Astronomical Twilight
Moon
Length of Visible Light
Length of Day
Tomorrow will be .
, % of the Moon is Illuminated

Today's Extremes

Country Highs Country Lows

Community

WunderPhotos

Upload Photos

1,928,297 photos uploaded!

WunderBlog® & News

Nearby

Air Quality

  Air Quality AQ Index Pollutant
Not available.

Snow Depth

Station Depth Elevation

Earthquake Activity

City Distance Mag. Time & Date
Minimum magnitude displayed is 2.5.

Coastal Water Temperatures

Place Temperature

Stations

Nearby Weather Stations

Station Location Temp. Windchill Dew Point Humidity Wind Precip. Elev Updated Type